createdAt,value
2018-05-09T00:01:27.326Z,99863.00
2018-05-09T00:03:58.452Z,99861.13
2018-05-09T00:06:29.385Z,99862.50
2018-05-09T00:09:00.253Z,99851.55
2018-05-09T00:11:31.390Z,99846.85
2018-05-09T00:14:02.438Z,99843.88
2018-05-09T00:16:33.358Z,99846.29
2018-05-09T00:19:04.130Z,99846.55
2018-05-09T00:21:35.658Z,99847.87
2018-05-09T00:24:06.390Z,99842.14
2018-05-09T00:26:37.418Z,99840.91
2018-05-09T00:29:08.922Z,99836.92
2018-05-09T00:31:39.606Z,99843.23
2018-05-09T00:34:09.651Z,99846.75
2018-05-09T00:36:40.462Z,99835.93
2018-05-09T00:39:11.357Z,99841.44
2018-05-09T00:41:42.365Z,99826.82
2018-05-09T00:44:13.278Z,99822.91
2018-05-09T00:46:44.349Z,99823.70
2018-05-09T00:49:14.918Z,99812.97
2018-05-09T00:51:45.651Z,99804.86
2018-05-09T00:54:27.093Z,99814.09
2018-05-09T00:56:56.095Z,99816.03
2018-05-09T00:59:25.562Z,99814.02
2018-05-09T01:01:54.482Z,99811.71
2018-05-09T01:04:23.475Z,99803.09
2018-05-09T01:06:52.737Z,99792.86
2018-05-09T01:09:21.654Z,99792.37
2018-05-09T01:11:52.486Z,99800.55
2018-05-09T01:14:22.884Z,99796.53
2018-05-09T01:16:53.601Z,99798.00
2018-05-09T01:19:24.389Z,99797.20
2018-05-09T01:21:55.358Z,99797.33
2018-05-09T01:24:26.226Z,99796.73
2018-05-09T01:26:57.466Z,99793.14
2018-05-09T01:29:28.515Z,99786.89
2018-05-09T01:31:59.262Z,99787.10
2018-05-09T01:34:29.879Z,99782.39
2018-05-09T01:37:00.606Z,99788.23
2018-05-09T01:39:31.298Z,99784.71
2018-05-09T01:42:02.439Z,99788.02
2018-05-09T01:44:33.388Z,99782.75
2018-05-09T01:47:04.377Z,99773.68
2018-05-09T01:49:35.391Z,99765.55
2018-05-09T01:52:06.450Z,99763.41
2018-05-09T01:54:37.342Z,99759.81
2018-05-09T01:57:08.014Z,99753.11
2018-05-09T01:59:38.682Z,99753.03
2018-05-09T02:02:09.434Z,99752.83
2018-05-09T02:04:40.411Z,99749.12
2018-05-09T02:07:11.509Z,99751.22
2018-05-09T02:09:42.319Z,99748.34
2018-05-09T02:12:13.447Z,99744.50
2018-05-09T02:14:43.969Z,99743.50
2018-05-09T02:17:15.537Z,99751.23
2018-05-09T02:19:45.965Z,99754.43
2018-05-09T02:22:16.759Z,99757.02
2018-05-09T02:24:46.687Z,99760.88
2018-05-09T02:27:17.431Z,99760.90
2018-05-09T02:29:48.402Z,99754.72
2018-05-09T02:32:19.414Z,99759.03
2018-05-09T02:34:50.397Z,99754.72
2018-05-09T02:37:21.341Z,99750.80
2018-05-09T02:39:52.376Z,99759.22
2018-05-09T02:42:23.226Z,99754.88
2018-05-09T02:44:54.688Z,99756.73
2018-05-09T02:47:24.730Z,99753.23
2018-05-09T02:49:55.446Z,99751.16
2018-05-09T02:52:26.506Z,99742.73
2018-05-09T02:54:56.997Z,99743.32
2018-05-09T02:57:27.710Z,99741.05
2018-05-09T02:59:58.445Z,99744.55
2018-05-09T03:02:29.357Z,99749.27
2018-05-09T03:05:00.202Z,99743.81
2018-05-09T03:07:31.438Z,99744.91
2018-05-09T03:10:02.367Z,99750.77
2018-05-09T03:12:33.450Z,99741.00
2018-05-09T03:15:04.043Z,99740.74
2018-05-09T03:17:35.753Z,99737.53
2018-05-09T03:20:06.438Z,99738.96
2018-05-09T03:22:37.418Z,99731.03
2018-05-09T03:25:08.298Z,99730.69
2018-05-09T03:27:39.254Z,99736.55
2018-05-09T03:30:10.911Z,99737.76
2018-05-09T03:32:41.613Z,99729.71
2018-05-09T03:35:12.620Z,99737.95
2018-05-09T03:37:43.386Z,99741.34
2018-05-09T03:40:14.402Z,99742.25
2018-05-09T03:42:45.504Z,99751.09
2018-05-09T03:45:16.339Z,99743.91
2018-05-09T03:47:47.421Z,99737.33
2018-05-09T03:50:18.314Z,99738.84
2018-05-09T03:52:49.420Z,99750.70
2018-05-09T03:55:20.322Z,99748.41
2018-05-09T03:57:51.434Z,99752.34
2018-05-09T04:00:22.296Z,99753.58
2018-05-09T04:03:04.799Z,99750.91
2018-05-09T04:05:44.672Z,99747.20
2018-05-09T04:08:24.978Z,99751.34
2018-05-09T04:10:53.933Z,99752.16
2018-05-09T04:13:22.958Z,99750.64
2018-05-09T04:15:51.970Z,99746.94
2018-05-09T04:18:20.941Z,99750.42
2018-05-09T04:20:49.938Z,99747.64
2018-05-09T04:23:19.118Z,99748.48
2018-05-09T04:25:48.139Z,99750.23
2018-05-09T04:28:17.083Z,99749.81
2018-05-09T04:30:46.615Z,99743.55
2018-05-09T04:33:15.534Z,99744.89
2018-05-09T04:35:44.450Z,99745.49
2018-05-09T04:38:13.432Z,99750.84
2018-05-09T04:40:42.357Z,99757.22
2018-05-09T04:43:11.378Z,99761.72
2018-05-09T04:45:40.802Z,99760.80
2018-05-09T04:48:09.741Z,99762.56
2018-05-09T04:50:40.478Z,99770.38
2018-05-09T04:53:11.375Z,99775.11
2018-05-09T04:55:42.441Z,99775.33
2018-05-09T04:58:12.921Z,99771.01
2018-05-09T05:00:43.722Z,99771.92
2018-05-09T05:03:14.598Z,99771.50
2018-05-09T05:05:45.478Z,99772.34
2018-05-09T05:08:16.425Z,99772.55
2018-05-09T05:10:47.437Z,99769.16
2018-05-09T05:13:18.416Z,99760.84
2018-05-09T05:15:49.423Z,99759.19
2018-05-09T05:18:20.384Z,99751.60
2018-05-09T05:20:51.383Z,99756.13
2018-05-09T05:23:22.362Z,99751.12
2018-05-09T05:25:53.243Z,99750.19
2018-05-09T05:28:24.626Z,99741.29
2018-05-09T05:30:55.714Z,99745.02
2018-05-09T05:33:26.391Z,99742.79
2018-05-09T05:35:57.474Z,99748.10
2018-05-09T05:38:28.329Z,99749.95
2018-05-09T05:40:59.487Z,99752.85
2018-05-09T05:43:30.462Z,99749.59
2018-05-09T05:46:01.443Z,99752.36
2018-05-09T05:48:32.390Z,99754.79
2018-05-09T05:51:03.410Z,99749.77
2018-05-09T05:53:34.426Z,99753.39
2018-05-09T05:56:05.470Z,99750.42
2018-05-09T05:58:36.362Z,99765.67
2018-05-09T06:01:07.401Z,99751.05
2018-05-09T06:03:38.042Z,99745.27
2018-05-09T06:06:08.983Z,99751.92
2018-05-09T06:08:39.772Z,99752.14
2018-05-09T06:11:10.597Z,99746.47
2018-05-09T06:13:41.415Z,99741.44
2018-05-09T06:16:12.346Z,99740.70
2018-05-09T06:18:43.451Z,99747.39
2018-05-09T06:21:14.433Z,99755.63
2018-05-09T06:23:45.406Z,99751.83
2018-05-09T06:26:16.470Z,99755.73
2018-05-09T06:28:47.380Z,99749.06
2018-05-09T06:31:18.206Z,99755.45
2018-05-09T06:33:48.708Z,99760.28
2018-05-09T06:36:19.782Z,99763.61
2018-05-09T06:38:49.733Z,99769.78
2018-05-09T06:41:20.559Z,99773.89
2018-05-09T06:43:51.526Z,99775.53
2018-05-09T06:46:21.713Z,99778.63
2018-05-09T06:48:52.473Z,99774.22
2018-05-09T06:51:23.478Z,99784.52
2018-05-09T06:53:54.430Z,99791.95
2018-05-09T06:56:25.447Z,99792.27
2018-05-09T06:58:56.464Z,99790.08
2018-05-09T07:01:27.414Z,99794.95
2018-05-09T07:03:58.449Z,99789.06
2018-05-09T07:06:29.150Z,99800.68
2018-05-09T07:08:59.881Z,99798.12
2018-05-09T07:11:30.656Z,99796.24
2018-05-09T07:14:01.042Z,99802.03
2018-05-09T07:16:32.002Z,99804.17
2018-05-09T07:19:02.702Z,99805.64
2018-05-09T07:21:33.471Z,99809.13
2018-05-09T07:24:04.473Z,99812.31
2018-05-09T07:26:35.422Z,99815.50
2018-05-09T07:29:06.361Z,99808.14
2018-05-09T07:31:37.279Z,99803.41
2018-05-09T07:34:07.972Z,99806.90
2018-05-09T07:36:38.754Z,99808.61
2018-05-09T07:39:09.427Z,99802.78
2018-05-09T07:41:40.105Z,99800.81
2018-05-09T07:44:10.814Z,99809.73
2018-05-09T07:46:41.622Z,99796.15
2018-05-09T07:49:12.399Z,99798.22
2018-05-09T07:51:43.499Z,99795.66
2018-05-09T07:54:14.373Z,99792.52
2018-05-09T07:56:45.469Z,99789.92
2018-05-09T07:59:16.370Z,99784.88
2018-05-09T08:01:47.535Z,99781.80
2018-05-09T08:04:18.354Z,99786.27
2018-05-09T08:06:49.466Z,99774.78
2018-05-09T08:09:20.352Z,99776.23
2018-05-09T08:11:51.429Z,99780.64
2018-05-09T08:14:22.027Z,99787.97
2018-05-09T08:16:52.745Z,99783.48
2018-05-09T08:19:23.453Z,99785.02
2018-05-09T08:21:54.474Z,99780.52
2018-05-09T08:24:25.362Z,99777.66
2018-05-09T08:26:56.875Z,99774.84
2018-05-09T08:29:27.573Z,99765.27
2018-05-09T08:31:57.651Z,99763.72
2018-05-09T08:34:28.991Z,99761.17
2018-05-09T08:37:00.808Z,99762.61
2018-05-09T08:39:30.842Z,99762.32
2018-05-09T08:42:01.611Z,99754.12
2018-05-09T08:44:32.508Z,99755.97
2018-05-09T08:47:03.342Z,99753.44
2018-05-09T08:49:34.515Z,99747.66
2018-05-09T08:52:05.359Z,99747.13
2018-05-09T08:54:36.440Z,99743.50
2018-05-09T08:57:07.417Z,99744.43
2018-05-09T08:59:38.412Z,99747.13
2018-05-09T09:02:09.025Z,99743.28
2018-05-09T09:04:39.806Z,99745.86
2018-05-09T09:07:10.531Z,99752.09
2018-05-09T09:09:41.084Z,99752.97
2018-05-09T09:12:11.765Z,99747.73
2018-05-09T09:14:42.486Z,99734.45
2018-05-09T09:17:13.381Z,99736.75
2018-05-09T09:19:44.322Z,99732.09
2018-05-09T09:22:15.203Z,99732.36
2018-05-09T09:24:46.783Z,99728.45
2018-05-09T09:27:17.497Z,99728.81
2018-05-09T09:29:48.113Z,99726.69
2018-05-09T09:32:18.557Z,99720.83
2018-05-09T09:34:49.448Z,99721.70
2018-05-09T09:37:20.425Z,99719.39
2018-05-09T09:39:51.445Z,99715.93
2018-05-09T09:42:22.241Z,99714.02
2018-05-09T09:44:53.437Z,99713.21
2018-05-09T09:47:24.442Z,99714.11
2018-05-09T09:49:55.591Z,99711.00
2018-05-09T09:52:26.327Z,99709.92
2018-05-09T09:54:57.473Z,99709.55
2018-05-09T09:57:28.330Z,99707.70
2018-05-09T09:59:59.522Z,99712.00
2018-05-09T10:02:30.381Z,99703.04
2018-05-09T10:05:01.431Z,99697.55
2018-05-09T10:07:32.437Z,99704.63
2018-05-09T10:10:03.480Z,99710.92
2018-05-09T10:12:34.434Z,99709.03
2018-05-09T10:15:05.076Z,99704.96
2018-05-09T10:17:36.184Z,99700.72
2018-05-09T10:20:06.944Z,99707.33
2018-05-09T10:22:37.618Z,99711.44
2018-05-09T10:25:08.499Z,99706.60
2018-05-09T10:27:39.343Z,99707.61
2018-05-09T10:30:10.458Z,99706.14
2018-05-09T10:32:41.339Z,99692.65
2018-05-09T10:35:12.499Z,99701.48
2018-05-09T10:37:43.318Z,99690.39
2018-05-09T10:40:14.409Z,99696.45
2018-05-09T10:42:45.412Z,99700.84
2018-05-09T10:45:16.406Z,99695.05
2018-05-09T10:47:47.284Z,99688.87
2018-05-09T10:50:18.222Z,99693.64
2018-05-09T10:52:49.346Z,99673.52
2018-05-09T10:55:20.009Z,99688.64
2018-05-09T10:57:50.695Z,99687.87
2018-05-09T11:00:21.438Z,99678.38
2018-05-09T11:02:52.383Z,99687.75
2018-05-09T11:05:23.689Z,99683.19
2018-05-09T11:07:54.402Z,99685.59
2018-05-09T11:10:25.430Z,99676.35
2018-05-09T11:12:56.374Z,99672.20
2018-05-09T11:15:27.433Z,99677.84
2018-05-09T11:17:58.380Z,99678.80
2018-05-09T11:20:29.424Z,99676.00
2018-05-09T11:22:59.962Z,99673.47
2018-05-09T11:25:30.682Z,99665.02
2018-05-09T11:28:01.362Z,99674.38
2018-05-09T11:30:32.497Z,99676.49
2018-05-09T11:33:03.287Z,99671.88
2018-05-09T11:35:34.447Z,99670.52
2018-05-09T11:38:05.390Z,99675.20
2018-05-09T11:40:36.451Z,99673.15
2018-05-09T11:43:07.417Z,99670.09
2018-05-09T11:45:38.543Z,99670.91
2018-05-09T11:48:09.382Z,99672.70
2018-05-09T11:50:40.420Z,99672.02
2018-05-09T11:53:11.333Z,99673.34
2018-05-09T11:55:42.452Z,99667.61
2018-05-09T11:58:13.399Z,99665.44
2018-05-09T12:00:44.437Z,99661.23
2018-05-09T12:03:15.394Z,99660.25
2018-05-09T12:05:46.379Z,99654.97
2018-05-09T12:08:17.373Z,99662.12
2018-05-09T12:10:48.040Z,99650.44
2018-05-09T12:13:18.742Z,99654.52
2018-05-09T12:15:49.479Z,99653.55
2018-05-09T12:18:20.272Z,99649.27
2018-05-09T12:20:51.391Z,99651.19
2018-05-09T12:23:22.047Z,99644.51
2018-05-09T12:25:52.744Z,99649.00
2018-05-09T12:28:23.498Z,99651.50
2018-05-09T12:30:54.367Z,99648.09
2018-05-09T12:33:25.489Z,99642.53
2018-05-09T12:35:56.372Z,99640.22
2018-05-09T12:38:27.290Z,99642.55
2018-05-09T12:40:58.341Z,99638.02
2018-05-09T12:43:29.426Z,99635.09
2018-05-09T12:46:00.408Z,99635.62
2018-05-09T12:48:31.497Z,99634.55
2018-05-09T12:51:02.179Z,99624.65
2018-05-09T12:53:33.702Z,99625.69
2018-05-09T12:56:04.469Z,99616.45
2018-05-09T12:58:35.378Z,99610.34
2018-05-09T13:01:06.423Z,99613.73
2018-05-09T13:03:37.415Z,99598.80
2018-05-09T13:06:08.463Z,99597.98
2018-05-09T13:08:39.416Z,99592.84
2018-05-09T13:11:10.419Z,99582.58
2018-05-09T13:13:41.402Z,99580.30
2018-05-09T13:16:12.578Z,99581.94
2018-05-09T13:18:43.397Z,99576.23
2018-05-09T13:21:14.374Z,99568.62
2018-05-09T13:23:45.346Z,99568.22
2018-05-09T13:26:16.481Z,99568.09
2018-05-09T13:28:47.201Z,99554.91
2018-05-09T13:31:17.998Z,99560.61
2018-05-09T13:33:48.737Z,99552.58
2018-05-09T13:36:19.490Z,99555.44
2018-05-09T13:38:50.398Z,99552.47
2018-05-09T13:41:21.386Z,99544.85
2018-05-09T13:43:52.378Z,99541.55
2018-05-09T13:46:23.097Z,99539.98
2018-05-09T13:48:53.876Z,99539.42
2018-05-09T13:51:24.667Z,99538.42
2018-05-09T13:53:54.808Z,99535.99
2018-05-09T13:56:25.686Z,99543.05
2018-05-09T13:58:56.506Z,99541.73
2018-05-09T14:01:27.514Z,99540.05
2018-05-09T14:03:58.390Z,99536.55
2018-05-09T14:06:29.375Z,99532.77
2018-05-09T14:09:00.374Z,99531.69
2018-05-09T14:11:31.487Z,99531.86
2018-05-09T14:14:02.346Z,99525.14
2018-05-09T14:16:33.370Z,99514.96
2018-05-09T14:19:04.412Z,99506.88
2018-05-09T14:21:35.479Z,99508.73
2018-05-09T14:24:06.322Z,99506.81
2018-05-09T14:26:36.977Z,99502.30
2018-05-09T14:29:07.658Z,99506.10
2018-05-09T14:31:39.322Z,99502.70
2018-05-09T14:34:09.011Z,99504.69
2018-05-09T14:36:38.843Z,99499.90
2018-05-09T14:39:09.598Z,99495.81
2018-05-09T14:41:40.360Z,99501.59
2018-05-09T14:44:11.440Z,99497.28
2018-05-09T14:46:42.348Z,99492.77
2018-05-09T14:49:13.434Z,99490.92
2018-05-09T14:51:44.398Z,99484.28
2018-05-09T14:54:16.261Z,99487.99
2018-05-09T14:56:46.941Z,99485.83
2018-05-09T14:59:17.673Z,99490.45
2018-05-09T15:01:48.496Z,99486.98
2018-05-09T15:04:19.100Z,99481.96
2018-05-09T15:06:49.709Z,99478.43
2018-05-09T15:09:20.507Z,99481.48
2018-05-09T15:11:51.385Z,99480.33
2018-05-09T15:14:22.350Z,99485.56
2018-05-09T15:16:52.958Z,99489.13
2018-05-09T15:19:23.778Z,99495.06
2018-05-09T15:21:54.498Z,99491.81
2018-05-09T15:24:25.497Z,99497.78
2018-05-09T15:26:56.308Z,99492.89
2018-05-09T15:29:27.414Z,99511.44
2018-05-09T15:31:57.994Z,99561.63
2018-05-09T15:34:28.718Z,99573.77
2018-05-09T15:37:01.244Z,99567.59
2018-05-09T15:39:30.962Z,99558.29
2018-05-09T15:42:01.673Z,99590.01
2018-05-09T15:44:32.462Z,99600.10
2018-05-09T15:47:03.403Z,99592.46
2018-05-09T15:49:34.453Z,99598.58
2018-05-09T15:52:05.394Z,99581.05
2018-05-09T15:54:36.384Z,99576.77
2018-05-09T15:57:07.316Z,99578.09
2018-05-09T15:59:37.983Z,99581.80
2018-05-09T16:02:08.694Z,99581.09
2018-05-09T16:04:39.570Z,99582.45
2018-05-09T16:07:09.997Z,99578.46
2018-05-09T16:09:40.730Z,99584.58
2018-05-09T16:12:11.418Z,99578.68
2018-05-09T16:14:42.392Z,99585.73
2018-05-09T16:17:13.381Z,99595.13
2018-05-09T16:19:44.597Z,99592.31
2018-05-09T16:22:15.478Z,99589.81
2018-05-09T16:24:46.775Z,99580.55
2018-05-09T16:27:17.749Z,99586.73
2018-05-09T16:29:48.537Z,99590.30
2018-05-09T16:32:19.329Z,99582.23
2018-05-09T16:34:50.441Z,99600.27
2018-05-09T16:37:21.298Z,99603.75
2018-05-09T16:39:52.505Z,99606.47
2018-05-09T16:42:23.419Z,99617.38
2018-05-09T16:44:54.441Z,99611.48
2018-05-09T16:47:25.420Z,99625.83
2018-05-09T16:49:56.434Z,99625.60
2018-05-09T16:52:27.397Z,99628.69
2018-05-09T16:54:58.398Z,99618.25
2018-05-09T16:57:29.417Z,99606.63
2018-05-09T17:00:00.463Z,99587.52
2018-05-09T17:02:31.352Z,99596.75
2018-05-09T17:05:02.451Z,99590.20
2018-05-09T17:07:33.330Z,99594.59
2018-05-09T17:10:04.154Z,99607.03
2018-05-09T17:12:34.763Z,99603.30
2018-05-09T17:15:05.587Z,99585.59
2018-05-09T17:17:36.368Z,99580.75
2018-05-09T17:20:07.450Z,99571.31
2018-05-09T17:22:38.344Z,99560.13
2018-05-09T17:25:09.083Z,99553.89
2018-05-09T17:27:39.562Z,99547.08
2018-05-09T17:30:10.454Z,99545.83
2018-05-09T17:32:41.433Z,99535.53
2018-05-09T17:35:12.965Z,99530.91
2018-05-09T17:37:43.697Z,99529.44
2018-05-09T17:40:14.503Z,99524.74
2018-05-09T17:42:45.410Z,99525.73
2018-05-09T17:45:17.167Z,99522.56
2018-05-09T17:47:47.656Z,99517.81
2018-05-09T17:50:18.498Z,99520.80
2018-05-09T17:52:48.964Z,99512.52
2018-05-09T17:55:19.725Z,99515.95
2018-05-09T17:57:50.679Z,99514.59
2018-05-09T18:00:21.536Z,99519.44
2018-05-09T18:02:52.501Z,99518.73
2018-05-09T18:05:23.403Z,99515.65
2018-05-09T18:07:54.446Z,99513.56
2018-05-09T18:10:25.562Z,99512.88
2018-05-09T18:12:56.111Z,99528.02
2018-05-09T18:15:26.902Z,99533.27
2018-05-09T18:17:57.650Z,99533.17
2018-05-09T18:20:28.523Z,99537.66
2018-05-09T18:22:59.343Z,99550.97
2018-05-09T18:25:30.750Z,99553.09
2018-05-09T18:28:01.496Z,99576.48
2018-05-09T18:30:32.464Z,99587.95
2018-05-09T18:33:03.432Z,99571.14
2018-05-09T18:35:34.377Z,99567.86
2018-05-09T18:38:05.437Z,99571.48
2018-05-09T18:40:36.442Z,99556.67
2018-05-09T18:43:07.406Z,99558.14
2018-05-09T18:45:38.483Z,99564.41
2018-05-09T18:48:09.347Z,99596.63
2018-05-09T18:50:40.515Z,99622.72
2018-05-09T18:53:11.008Z,99599.30
2018-05-09T18:55:41.846Z,99605.61
2018-05-09T18:58:12.683Z,99588.73
2018-05-09T19:00:42.584Z,99595.42
2018-05-09T19:03:13.415Z,99596.61
2018-05-09T19:05:44.588Z,99583.31
2018-05-09T19:08:15.408Z,99577.75
2018-05-09T19:10:51.563Z,99572.20
2018-05-09T19:13:20.538Z,99569.30
2018-05-09T19:15:49.557Z,99563.82
2018-05-09T19:18:18.983Z,99560.92
2018-05-09T19:20:49.581Z,99563.79
2018-05-09T19:23:20.503Z,99564.67
2018-05-09T19:25:51.093Z,99569.77
2018-05-09T19:28:21.562Z,99561.68
2018-05-09T19:30:52.555Z,99570.14
2018-05-09T19:33:23.372Z,99587.05
2018-05-09T19:35:59.812Z,99595.72
2018-05-09T19:38:30.355Z,99599.59
2018-05-09T19:41:00.733Z,99604.04
2018-05-09T19:43:29.689Z,99605.27
2018-05-09T19:45:58.665Z,99604.13
2018-05-09T19:48:29.279Z,99605.88
2018-05-09T19:51:00.224Z,99609.03
2018-05-09T19:53:31.736Z,99615.75
2018-05-09T19:56:03.424Z,99623.38
2018-05-09T19:58:34.144Z,99622.05
2018-05-09T20:01:04.928Z,99620.64
2018-05-09T20:03:35.723Z,99615.52
2018-05-09T20:06:06.501Z,99604.84
2018-05-09T20:08:37.136Z,99599.00
2018-05-09T20:11:08.013Z,99599.77
2018-05-09T20:13:38.131Z,99592.34
2018-05-09T20:16:09.852Z,99598.34
2018-05-09T20:18:39.928Z,99590.77
2018-05-09T20:21:10.662Z,99591.06
2018-05-09T20:23:41.580Z,99586.60
2018-05-09T20:26:12.430Z,99580.75
2018-05-09T20:28:49.154Z,99581.21
2018-05-09T20:31:34.752Z,99563.12
2018-05-09T20:34:04.046Z,99558.83
2018-05-09T20:36:33.026Z,99558.99
2018-05-09T20:39:01.987Z,99552.55
2018-05-09T20:41:31.078Z,99551.45
2018-05-09T20:44:00.418Z,99545.48
2018-05-09T20:46:29.463Z,99544.20
2018-05-09T20:48:58.565Z,99533.36
2018-05-09T20:51:38.872Z,99540.84
2018-05-09T20:54:08.236Z,99544.16
2018-05-09T20:56:37.483Z,99548.31
2018-05-09T20:59:06.880Z,99542.64
2018-05-09T21:01:48.112Z,99548.14
2018-05-09T21:04:17.094Z,99545.27
2018-05-09T21:06:46.129Z,99557.23
2018-05-09T21:09:15.518Z,99564.90
2018-05-09T21:11:56.099Z,99566.44
2018-05-09T21:14:25.252Z,99566.58
2018-05-09T21:16:54.211Z,99561.63
2018-05-09T21:19:23.326Z,99564.25
2018-05-09T21:21:52.396Z,99564.70
2018-05-09T21:24:21.401Z,99571.84
2018-05-09T21:26:50.409Z,99578.44
2018-05-09T21:29:20.026Z,99591.10
2018-05-09T21:31:49.310Z,99589.79
2018-05-09T21:34:18.299Z,99605.97
2018-05-09T21:36:47.769Z,99613.34
2018-05-09T21:39:16.846Z,99652.92
2018-05-09T21:41:46.572Z,99661.09
2018-05-09T21:44:15.870Z,99698.39
2018-05-09T21:46:44.856Z,99692.15
2018-05-09T21:49:13.859Z,99698.02
2018-05-09T21:51:43.026Z,99699.78
2018-05-09T21:54:11.987Z,99672.81
2018-05-09T21:56:42.817Z,99658.63
2018-05-09T21:59:12.923Z,99670.19
2018-05-09T22:01:43.783Z,99680.91
2018-05-09T22:04:14.463Z,99677.53
2018-05-09T22:06:45.356Z,99672.48
2018-05-09T22:09:16.550Z,99668.27
2018-05-09T22:11:47.450Z,99664.94
2018-05-09T22:14:18.368Z,99660.38
2018-05-09T22:16:49.406Z,99664.19
2018-05-09T22:19:20.484Z,99665.76
2018-05-09T22:21:51.439Z,99660.66
2018-05-09T22:24:22.329Z,99659.72
2018-05-09T22:26:53.514Z,99663.21
2018-05-09T22:29:24.413Z,99652.16
2018-05-09T22:31:56.151Z,99649.66
2018-05-09T22:34:26.761Z,99660.02
2018-05-09T22:36:57.340Z,99636.88
2018-05-09T22:39:28.409Z,99634.55
2018-05-09T22:41:59.509Z,99633.02
2018-05-09T22:44:30.405Z,99628.06
2018-05-09T22:47:01.410Z,99624.54
2018-05-09T22:49:32.366Z,99619.73
2018-05-09T22:52:03.417Z,99617.30
2018-05-09T22:54:33.953Z,99608.63
2018-05-09T22:57:04.730Z,99605.29
2018-05-09T22:59:35.369Z,99605.20
2018-05-09T23:02:06.012Z,99598.06
2018-05-09T23:04:36.687Z,99601.80
2018-05-09T23:07:07.495Z,99588.06
2018-05-09T23:09:38.328Z,99583.70
2018-05-09T23:12:09.374Z,99578.42
2018-05-09T23:14:40.381Z,99582.58
2018-05-09T23:17:11.550Z,99584.45
2018-05-09T23:19:42.365Z,99579.89
2018-05-09T23:22:13.451Z,99581.67
2018-05-09T23:24:44.242Z,99582.82
2018-05-09T23:27:15.869Z,99591.66
2018-05-09T23:29:46.652Z,99588.91
2018-05-09T23:32:17.443Z,99589.94
2018-05-09T23:34:48.314Z,99595.69
2018-05-09T23:37:19.472Z,99578.33
2018-05-09T23:39:50.399Z,99580.69
2018-05-09T23:42:21.446Z,99574.36
2018-05-09T23:44:52.422Z,99575.08
2018-05-09T23:47:23.457Z,99579.53
2018-05-09T23:49:54.411Z,99566.72
2018-05-09T23:52:25.494Z,99558.46
2018-05-09T23:54:56.370Z,99559.27
2018-05-09T23:57:27.466Z,99555.66
2018-05-09T23:59:58.331Z,99552.67
